UAL9 KMIA-MTPP
Flight info
| Callsign | UAL9 |
|---|---|
| Flight time | 1h 26m |
| Altitude | 41000 |
| Route | KLADA2 JAGOR Y398 JOSES UA315 SAVAR SAVAR1C |
| Aircraft | A359/H-SDE2E3GHIJ3J4J5LM1ORWXY/LB1D1 |
Departure
| Time | 2026-04-17 04:07 |
|---|---|
| Airport | Miami International Airport (KMIA) |
Arrival
| Time | 2026-04-17 05:34 |
|---|---|
| Airport | Toussaint Louverture International Airport (MTPP) |
| Time | Latitude | Longitude | Altitude | Speed | Heading |
|---|---|---|---|---|---|
| 2026-04-17 03:45 | 25.79777 | -80.27991 | 26 ft | 0 kts | 177° |
| 2026-04-17 03:53 | 25.79784 | -80.27991 | 30 ft | 4 kts | 177° |
| 2026-04-17 03:54 | 25.79811 | -80.27992 | 28 ft | 4 kts | 181° |
| 2026-04-17 03:54 | 25.79838 | -80.27990 | 29 ft | 4 kts | 190° |
| 2026-04-17 03:54 | 25.79864 | -80.27983 | 27 ft | 4 kts | 201° |
| 2026-04-17 03:54 | 25.79885 | -80.27972 | 30 ft | 0 kts | 210° |
| 2026-04-17 03:58 | 25.79874 | -80.27986 | 28 ft | 9 kts | 234° |
| 2026-04-17 03:58 | 25.79884 | -80.28061 | 29 ft | 12 kts | 291° |
| 2026-04-17 03:58 | 25.79912 | -80.28161 | 27 ft | 15 kts | 281° |
| 2026-04-17 03:59 | 25.79932 | -80.28281 | 28 ft | 17 kts | 285° |
| 2026-04-17 03:59 | 25.79950 | -80.28414 | 27 ft | 18 kts | 266° |
| 2026-04-17 03:59 | 25.79947 | -80.28560 | 29 ft | 19 kts | 267° |
| 2026-04-17 03:59 | 25.79941 | -80.28709 | 32 ft | 20 kts | 266° |
| 2026-04-17 04:00 | 25.79932 | -80.28872 | 32 ft | 23 kts | 267° |
| 2026-04-17 04:00 | 25.79922 | -80.29056 | 31 ft | 25 kts | 269° |
| 2026-04-17 04:00 | 25.79913 | -80.29260 | 30 ft | 28 kts | 267° |
| 2026-04-17 04:00 | 25.79905 | -80.29489 | 29 ft | 31 kts | 267° |
| 2026-04-17 04:01 | 25.79910 | -80.29736 | 27 ft | 32 kts | 278° |
| 2026-04-17 04:01 | 25.79968 | -80.29928 | 24 ft | 15 kts | 287° |
| 2026-04-17 04:01 | 25.79971 | -80.29941 | 24 ft | 0 kts | 287° |
| 2026-04-17 04:05 | 25.79972 | -80.29942 | 22 ft | 1 kts | 287° |
| 2026-04-17 04:05 | 25.79984 | -80.29989 | 24 ft | 18 kts | 285° |
| 2026-04-17 04:05 | 25.80031 | -80.30095 | 26 ft | 10 kts | 342° |
| 2026-04-17 04:06 | 25.80072 | -80.30044 | 27 ft | 11 kts | 77° |
| 2026-04-17 04:06 | 25.80077 | -80.29982 | 26 ft | 0 kts | 87° |
| 2026-04-17 04:07 | 25.80087 | -80.29751 | 24 ft | 82 kts | 88° |
| 2026-04-17 04:07 | 25.80130 | -80.28723 | 41 ft | 179 kts | 87° |
| 2026-04-17 04:07 | 25.80178 | -80.27374 | 1425 ft | 162 kts | 86° |
| 2026-04-17 04:07 | 25.80179 | -80.26038 | 2598 ft | 181 kts | 94° |
| 2026-04-17 04:08 | 25.79898 | -80.24616 | 3240 ft | 201 kts | 110° |
| 2026-04-17 04:08 | 25.79183 | -80.23147 | 3606 ft | 229 kts | 120° |
| 2026-04-17 04:08 | 25.78388 | -80.21527 | 4147 ft | 247 kts | 117° |
| 2026-04-17 04:08 | 25.77594 | -80.19785 | 4872 ft | 257 kts | 117° |
| 2026-04-17 04:09 | 25.76779 | -80.17982 | 5639 ft | 264 kts | 117° |
| 2026-04-17 04:09 | 25.75935 | -80.16190 | 6520 ft | 268 kts | 118° |
| 2026-04-17 04:09 | 25.75017 | -80.14361 | 7304 ft | 274 kts | 118° |
| 2026-04-17 04:09 | 25.74080 | -80.12493 | 8109 ft | 280 kts | 118° |
| 2026-04-17 04:10 | 25.73206 | -80.10531 | 8954 ft | 285 kts | 111° |
| 2026-04-17 04:10 | 25.72492 | -80.08464 | 9847 ft | 289 kts | 109° |
| 2026-04-17 04:10 | 25.71792 | -80.06330 | 10472 ft | 303 kts | 108° |
| 2026-04-17 04:10 | 25.71042 | -80.04047 | 10846 ft | 324 kts | 108° |
| 2026-04-17 04:11 | 25.70247 | -80.01630 | 11253 ft | 341 kts | 108° |
| 2026-04-17 04:11 | 25.69419 | -79.99131 | 11878 ft | 349 kts | 108° |
| 2026-04-17 04:11 | 25.68577 | -79.96594 | 12589 ft | 354 kts | 108° |
| 2026-04-17 04:11 | 25.67725 | -79.94026 | 13285 ft | 360 kts | 108° |
| 2026-04-17 04:12 | 25.66856 | -79.91413 | 13984 ft | 365 kts | 108° |
| 2026-04-17 04:12 | 25.65969 | -79.88745 | 14610 ft | 369 kts | 108° |
| 2026-04-17 04:12 | 25.65074 | -79.86056 | 15256 ft | 373 kts | 108° |
| 2026-04-17 04:12 | 25.64170 | -79.83339 | 15901 ft | 376 kts | 109° |
| 2026-04-17 04:13 | 25.63269 | -79.80635 | 16555 ft | 380 kts | 109° |
| 2026-04-17 04:13 | 25.62355 | -79.77894 | 17242 ft | 382 kts | 109° |
| 2026-04-17 04:13 | 25.61424 | -79.75104 | 17921 ft | 386 kts | 109° |
| 2026-04-17 04:13 | 25.60486 | -79.72294 | 18548 ft | 390 kts | 109° |
| 2026-04-17 04:14 | 25.59467 | -79.69478 | 19079 ft | 396 kts | 113° |
| 2026-04-17 04:14 | 25.58276 | -79.66704 | 19651 ft | 400 kts | 115° |
| 2026-04-17 04:14 | 25.57042 | -79.63927 | 20238 ft | 404 kts | 115° |
| 2026-04-17 04:14 | 25.55794 | -79.61121 | 20870 ft | 407 kts | 115° |
| 2026-04-17 04:15 | 25.54550 | -79.58323 | 21369 ft | 413 kts | 114° |
| 2026-04-17 04:15 | 25.53268 | -79.55434 | 21897 ft | 418 kts | 115° |
| 2026-04-17 04:15 | 25.51973 | -79.52521 | 22419 ft | 424 kts | 114° |
| 2026-04-17 04:15 | 25.50665 | -79.49577 | 22984 ft | 428 kts | 114° |
| 2026-04-17 04:16 | 25.49348 | -79.46613 | 23614 ft | 430 kts | 114° |
| 2026-04-17 04:16 | 25.48018 | -79.43626 | 24064 ft | 435 kts | 115° |
| 2026-04-17 04:16 | 25.46687 | -79.40637 | 24596 ft | 438 kts | 115° |
| 2026-04-17 04:16 | 25.45333 | -79.37598 | 25107 ft | 442 kts | 114° |
| 2026-04-17 04:17 | 25.43968 | -79.34534 | 25583 ft | 447 kts | 114° |
| 2026-04-17 04:17 | 25.42585 | -79.31433 | 26062 ft | 451 kts | 114° |
| 2026-04-17 04:17 | 25.41188 | -79.28304 | 26562 ft | 456 kts | 114° |
| 2026-04-17 04:17 | 25.39776 | -79.25144 | 27039 ft | 461 kts | 114° |
| 2026-04-17 04:18 | 25.38349 | -79.21951 | 27520 ft | 465 kts | 114° |
| 2026-04-17 04:18 | 25.36905 | -79.18723 | 27997 ft | 470 kts | 114° |
| 2026-04-17 04:18 | 25.35450 | -79.15473 | 28457 ft | 474 kts | 114° |
| 2026-04-17 04:18 | 25.33978 | -79.12188 | 28924 ft | 479 kts | 114° |
| 2026-04-17 04:19 | 25.32492 | -79.08873 | 29374 ft | 483 kts | 114° |
| 2026-04-17 04:19 | 25.30990 | -79.05525 | 29830 ft | 488 kts | 114° |
| 2026-04-17 04:19 | 25.29476 | -79.02154 | 30296 ft | 491 kts | 114° |
| 2026-04-17 04:19 | 25.27951 | -78.98760 | 30708 ft | 494 kts | 114° |
| 2026-04-17 04:20 | 25.26419 | -78.95352 | 31115 ft | 497 kts | 114° |
| 2026-04-17 04:20 | 25.24892 | -78.91961 | 31508 ft | 500 kts | 114° |
| 2026-04-17 04:20 | 25.23339 | -78.88514 | 31906 ft | 503 kts | 114° |
| 2026-04-17 04:20 | 25.21770 | -78.85032 | 32288 ft | 506 kts | 115° |
| 2026-04-17 04:21 | 25.20201 | -78.81555 | 32698 ft | 508 kts | 115° |
| 2026-04-17 04:21 | 25.18619 | -78.78051 | 33073 ft | 510 kts | 115° |
| 2026-04-17 04:21 | 25.17033 | -78.74539 | 33419 ft | 513 kts | 115° |
| 2026-04-17 04:21 | 25.15435 | -78.71006 | 33754 ft | 516 kts | 115° |
| 2026-04-17 04:22 | 25.13826 | -78.67451 | 34094 ft | 518 kts | 115° |
| 2026-04-17 04:22 | 25.12209 | -78.63880 | 34365 ft | 521 kts | 115° |
| 2026-04-17 04:22 | 25.10586 | -78.60299 | 34632 ft | 523 kts | 115° |
| 2026-04-17 04:22 | 25.08925 | -78.56732 | 35005 ft | 523 kts | 116° |
| 2026-04-17 04:23 | 25.07181 | -78.53215 | 35394 ft | 522 kts | 117° |
| 2026-04-17 04:23 | 25.05447 | -78.49744 | 35757 ft | 522 kts | 116° |
| 2026-04-17 04:23 | 25.03704 | -78.46239 | 36115 ft | 522 kts | 116° |
| 2026-04-17 04:23 | 25.01964 | -78.42729 | 36463 ft | 521 kts | 116° |
| 2026-04-17 04:24 | 25.00225 | -78.39217 | 36806 ft | 521 kts | 116° |
| 2026-04-17 04:24 | 24.98491 | -78.35712 | 37137 ft | 520 kts | 116° |
| 2026-04-17 04:24 | 24.96763 | -78.32220 | 37481 ft | 520 kts | 116° |
| 2026-04-17 04:24 | 24.95032 | -78.28725 | 37803 ft | 519 kts | 116° |
| 2026-04-17 04:25 | 24.93301 | -78.25229 | 38140 ft | 519 kts | 115° |
| 2026-04-17 04:25 | 24.91570 | -78.21738 | 38455 ft | 518 kts | 115° |
| 2026-04-17 04:25 | 24.89844 | -78.18258 | 38764 ft | 518 kts | 115° |
| 2026-04-17 04:25 | 24.88118 | -78.14779 | 39016 ft | 518 kts | 115° |
| 2026-04-17 04:26 | 24.86391 | -78.11303 | 39252 ft | 517 kts | 115° |
| 2026-04-17 04:26 | 24.84662 | -78.07823 | 39476 ft | 517 kts | 115° |
| 2026-04-17 04:26 | 24.82936 | -78.04354 | 39752 ft | 516 kts | 115° |
| 2026-04-17 04:26 | 24.81214 | -78.00895 | 39981 ft | 516 kts | 115° |
| 2026-04-17 04:27 | 24.79488 | -77.97430 | 40190 ft | 516 kts | 115° |
| 2026-04-17 04:27 | 24.77783 | -77.94010 | 40410 ft | 515 kts | 115° |
| 2026-04-17 04:27 | 24.76062 | -77.90561 | 40631 ft | 515 kts | 115° |
| 2026-04-17 04:27 | 24.74335 | -77.87101 | 40835 ft | 515 kts | 115° |
| 2026-04-17 04:28 | 24.72613 | -77.83655 | 41023 ft | 515 kts | 115° |
| 2026-04-17 04:28 | 24.69143 | -77.76717 | 41129 ft | 520 kts | 115° |
| 2026-04-17 04:28 | 24.67145 | -77.73391 | 41127 ft | 524 kts | 128° |
| 2026-04-17 04:29 | 24.64568 | -77.70549 | 41128 ft | 526 kts | 136° |
| 2026-04-17 04:29 | 24.59052 | -77.65230 | 41100 ft | 527 kts | 137° |
| 2026-04-17 04:30 | 24.53534 | -77.59914 | 41100 ft | 528 kts | 136° |
| 2026-04-17 04:30 | 24.48025 | -77.54591 | 41098 ft | 527 kts | 136° |
| 2026-04-17 04:31 | 24.42523 | -77.49274 | 41096 ft | 527 kts | 136° |
| 2026-04-17 04:31 | 24.37020 | -77.43959 | 41094 ft | 527 kts | 136° |
| 2026-04-17 04:32 | 24.31508 | -77.38642 | 41095 ft | 527 kts | 136° |
| 2026-04-17 04:32 | 24.26034 | -77.33368 | 41094 ft | 527 kts | 136° |
| 2026-04-17 04:33 | 24.20531 | -77.28071 | 41095 ft | 527 kts | 136° |
| 2026-04-17 04:33 | 24.15016 | -77.22770 | 41106 ft | 527 kts | 136° |
| 2026-04-17 04:34 | 24.06753 | -77.14839 | 41088 ft | 527 kts | 136° |
| 2026-04-17 04:34 | 24.01240 | -77.09555 | 41089 ft | 526 kts | 136° |
| 2026-04-17 04:35 | 23.95724 | -77.04275 | 41082 ft | 526 kts | 136° |
| 2026-04-17 04:35 | 23.90201 | -76.98994 | 41085 ft | 527 kts | 136° |
| 2026-04-17 04:36 | 23.84722 | -76.93761 | 41085 ft | 527 kts | 136° |
| 2026-04-17 04:36 | 23.79186 | -76.88481 | 41082 ft | 527 kts | 136° |
| 2026-04-17 04:37 | 23.73668 | -76.83225 | 41082 ft | 526 kts | 136° |
| 2026-04-17 04:37 | 23.68154 | -76.77976 | 41082 ft | 526 kts | 136° |
| 2026-04-17 04:38 | 23.62648 | -76.72743 | 41079 ft | 525 kts | 136° |
| 2026-04-17 04:38 | 23.57132 | -76.67505 | 41078 ft | 526 kts | 136° |
| 2026-04-17 04:39 | 23.51613 | -76.62271 | 41074 ft | 526 kts | 136° |
| 2026-04-17 04:39 | 23.46097 | -76.57046 | 41074 ft | 525 kts | 136° |
| 2026-04-17 04:40 | 23.40580 | -76.51826 | 41070 ft | 525 kts | 136° |
| 2026-04-17 04:40 | 23.35102 | -76.46650 | 41067 ft | 525 kts | 136° |
| 2026-04-17 04:41 | 23.29590 | -76.41446 | 41067 ft | 524 kts | 136° |
| 2026-04-17 04:41 | 23.24079 | -76.36250 | 41075 ft | 524 kts | 136° |
| 2026-04-17 04:42 | 23.18563 | -76.31054 | 41068 ft | 524 kts | 136° |
| 2026-04-17 04:42 | 23.13048 | -76.25865 | 41061 ft | 524 kts | 136° |
| 2026-04-17 04:43 | 23.07526 | -76.20676 | 41061 ft | 524 kts | 136° |
| 2026-04-17 04:43 | 23.02011 | -76.15499 | 41060 ft | 524 kts | 136° |
| 2026-04-17 04:44 | 22.96488 | -76.10322 | 41058 ft | 524 kts | 136° |
| 2026-04-17 04:44 | 22.91015 | -76.05195 | 41058 ft | 523 kts | 136° |
| 2026-04-17 04:45 | 22.85490 | -76.00026 | 41052 ft | 523 kts | 136° |
| 2026-04-17 04:45 | 22.79957 | -75.94855 | 41049 ft | 523 kts | 136° |
| 2026-04-17 04:46 | 22.74468 | -75.89732 | 41052 ft | 523 kts | 136° |
| 2026-04-17 04:46 | 22.68947 | -75.84584 | 41047 ft | 523 kts | 136° |
| 2026-04-17 04:47 | 22.63422 | -75.79438 | 41050 ft | 523 kts | 136° |
| 2026-04-17 04:47 | 22.57940 | -75.74338 | 41048 ft | 523 kts | 136° |
| 2026-04-17 04:48 | 22.52375 | -75.69166 | 41045 ft | 523 kts | 136° |
| 2026-04-17 04:48 | 22.46880 | -75.64065 | 41042 ft | 523 kts | 136° |
| 2026-04-17 04:49 | 22.41355 | -75.58941 | 41036 ft | 523 kts | 136° |
| 2026-04-17 04:49 | 22.35832 | -75.53825 | 41036 ft | 523 kts | 136° |
| 2026-04-17 04:50 | 22.30337 | -75.48740 | 41034 ft | 523 kts | 136° |
| 2026-04-17 04:50 | 22.24800 | -75.43623 | 41034 ft | 523 kts | 136° |
| 2026-04-17 04:51 | 22.19273 | -75.38520 | 41034 ft | 522 kts | 135° |
| 2026-04-17 04:51 | 22.13745 | -75.33421 | 41029 ft | 522 kts | 135° |
| 2026-04-17 04:52 | 22.08224 | -75.28334 | 41028 ft | 522 kts | 135° |
| 2026-04-17 04:52 | 22.02699 | -75.23249 | 41026 ft | 522 kts | 135° |
| 2026-04-17 04:53 | 21.97215 | -75.18207 | 41023 ft | 522 kts | 135° |
| 2026-04-17 04:55 | 21.76001 | -74.98753 | 41019 ft | 522 kts | 135° |
| 2026-04-17 04:55 | 21.70467 | -74.93690 | 41019 ft | 521 kts | 135° |
| 2026-04-17 04:56 | 21.64938 | -74.88638 | 41023 ft | 521 kts | 135° |
| 2026-04-17 04:56 | 21.59442 | -74.83622 | 41009 ft | 521 kts | 135° |
| 2026-04-17 04:57 | 21.56678 | -74.81101 | 40636 ft | 520 kts | 135° |
| 2026-04-17 04:57 | 21.53915 | -74.78582 | 39989 ft | 521 kts | 135° |
| 2026-04-17 04:57 | 21.51161 | -74.76073 | 39428 ft | 518 kts | 135° |
| 2026-04-17 04:57 | 21.48417 | -74.73575 | 38832 ft | 517 kts | 135° |
| 2026-04-17 04:58 | 21.45677 | -74.71080 | 38107 ft | 517 kts | 135° |
| 2026-04-17 04:58 | 21.42921 | -74.68571 | 37343 ft | 518 kts | 133° |
| 2026-04-17 04:58 | 21.40195 | -74.66047 | 36551 ft | 518 kts | 133° |
| 2026-04-17 04:58 | 21.37463 | -74.63516 | 35731 ft | 519 kts | 133° |
| 2026-04-17 04:59 | 21.34721 | -74.60993 | 34964 ft | 520 kts | 134° |
| 2026-04-17 04:59 | 21.31954 | -74.58462 | 34187 ft | 521 kts | 134° |
| 2026-04-17 04:59 | 21.29193 | -74.55947 | 33319 ft | 522 kts | 134° |
| 2026-04-17 04:59 | 21.26421 | -74.53430 | 32573 ft | 520 kts | 135° |
| 2026-04-17 05:00 | 21.23671 | -74.50940 | 32240 ft | 516 kts | 135° |
| 2026-04-17 05:00 | 21.20923 | -74.48448 | 31994 ft | 517 kts | 135° |
| 2026-04-17 05:00 | 21.18217 | -74.45997 | 31753 ft | 515 kts | 135° |
| 2026-04-17 05:00 | 21.15486 | -74.43526 | 31513 ft | 513 kts | 135° |
| 2026-04-17 05:01 | 21.12764 | -74.41064 | 31269 ft | 511 kts | 135° |
| 2026-04-17 05:01 | 21.10021 | -74.38584 | 31029 ft | 508 kts | 135° |
| 2026-04-17 05:01 | 21.07356 | -74.36176 | 30797 ft | 506 kts | 135° |
| 2026-04-17 05:01 | 21.04677 | -74.33755 | 30575 ft | 504 kts | 135° |
| 2026-04-17 05:02 | 21.02002 | -74.31340 | 30337 ft | 501 kts | 135° |
| 2026-04-17 05:02 | 20.99338 | -74.28937 | 30133 ft | 499 kts | 135° |
| 2026-04-17 05:02 | 20.96696 | -74.26554 | 29864 ft | 497 kts | 135° |
| 2026-04-17 05:02 | 20.94063 | -74.24180 | 29584 ft | 495 kts | 135° |
| 2026-04-17 05:03 | 20.91425 | -74.21804 | 29318 ft | 493 kts | 135° |
| 2026-04-17 05:03 | 20.88808 | -74.19447 | 29058 ft | 490 kts | 135° |
| 2026-04-17 05:03 | 20.86212 | -74.17110 | 28791 ft | 488 kts | 135° |
| 2026-04-17 05:03 | 20.83606 | -74.14765 | 28521 ft | 486 kts | 135° |
| 2026-04-17 05:04 | 20.81028 | -74.12447 | 28274 ft | 484 kts | 135° |
| 2026-04-17 05:04 | 20.78463 | -74.10140 | 28029 ft | 481 kts | 135° |
| 2026-04-17 05:04 | 20.75899 | -74.07837 | 27770 ft | 479 kts | 135° |
| 2026-04-17 05:04 | 20.73350 | -74.05547 | 27516 ft | 477 kts | 135° |
| 2026-04-17 05:05 | 20.70854 | -74.03306 | 27274 ft | 475 kts | 135° |
| 2026-04-17 05:05 | 20.68333 | -74.01044 | 27019 ft | 473 kts | 135° |
| 2026-04-17 05:05 | 20.65809 | -73.98779 | 26791 ft | 471 kts | 135° |
| 2026-04-17 05:05 | 20.63298 | -73.96528 | 26546 ft | 469 kts | 135° |
| 2026-04-17 05:06 | 20.60800 | -73.94289 | 26306 ft | 467 kts | 135° |
| 2026-04-17 05:06 | 20.58313 | -73.92061 | 26067 ft | 466 kts | 135° |
| 2026-04-17 05:06 | 20.55829 | -73.89837 | 25830 ft | 464 kts | 135° |
| 2026-04-17 05:06 | 20.53369 | -73.87636 | 25603 ft | 462 kts | 135° |
| 2026-04-17 05:07 | 20.50912 | -73.85438 | 25360 ft | 460 kts | 135° |
| 2026-04-17 05:07 | 20.48466 | -73.83250 | 25121 ft | 458 kts | 135° |
| 2026-04-17 05:07 | 20.46035 | -73.81077 | 24916 ft | 456 kts | 135° |
| 2026-04-17 05:07 | 20.43631 | -73.78930 | 24691 ft | 454 kts | 136° |
| 2026-04-17 05:08 | 20.41215 | -73.76772 | 24455 ft | 452 kts | 136° |
| 2026-04-17 05:08 | 20.38806 | -73.74622 | 24234 ft | 450 kts | 136° |
| 2026-04-17 05:08 | 20.36410 | -73.72483 | 24015 ft | 449 kts | 136° |
| 2026-04-17 05:08 | 20.34019 | -73.70350 | 23795 ft | 447 kts | 136° |
| 2026-04-17 05:09 | 20.31637 | -73.68226 | 23564 ft | 446 kts | 136° |
| 2026-04-17 05:09 | 20.29255 | -73.66103 | 23311 ft | 444 kts | 136° |
| 2026-04-17 05:09 | 20.26897 | -73.64003 | 23053 ft | 442 kts | 136° |
| 2026-04-17 05:09 | 20.24547 | -73.61910 | 22805 ft | 440 kts | 136° |
| 2026-04-17 05:10 | 20.22202 | -73.59824 | 22543 ft | 438 kts | 136° |
| 2026-04-17 05:10 | 20.19869 | -73.57748 | 22286 ft | 435 kts | 136° |
| 2026-04-17 05:10 | 20.17583 | -73.55715 | 22033 ft | 433 kts | 136° |
| 2026-04-17 05:10 | 20.15273 | -73.53661 | 21785 ft | 431 kts | 136° |
| 2026-04-17 05:11 | 20.12976 | -73.51619 | 21537 ft | 429 kts | 136° |
| 2026-04-17 05:11 | 20.10692 | -73.49590 | 21293 ft | 427 kts | 136° |
| 2026-04-17 05:11 | 20.08414 | -73.47568 | 21048 ft | 425 kts | 136° |
| 2026-04-17 05:11 | 20.06149 | -73.45557 | 20804 ft | 423 kts | 136° |
| 2026-04-17 05:12 | 20.03891 | -73.43553 | 20569 ft | 421 kts | 136° |
| 2026-04-17 05:12 | 20.01647 | -73.41563 | 20325 ft | 419 kts | 136° |
| 2026-04-17 05:12 | 19.99405 | -73.39575 | 20083 ft | 418 kts | 136° |
| 2026-04-17 05:12 | 19.97179 | -73.37602 | 19874 ft | 416 kts | 136° |
| 2026-04-17 05:13 | 19.94963 | -73.35639 | 19635 ft | 414 kts | 136° |
| 2026-04-17 05:13 | 19.92752 | -73.33681 | 19397 ft | 412 kts | 136° |
| 2026-04-17 05:13 | 19.90553 | -73.31734 | 19171 ft | 410 kts | 136° |
| 2026-04-17 05:13 | 19.88361 | -73.29794 | 18952 ft | 409 kts | 136° |
| 2026-04-17 05:14 | 19.86189 | -73.27872 | 18718 ft | 406 kts | 136° |
| 2026-04-17 05:14 | 19.84045 | -73.25977 | 18492 ft | 404 kts | 136° |
| 2026-04-17 05:14 | 19.81884 | -73.24066 | 18274 ft | 402 kts | 136° |
| 2026-04-17 05:14 | 19.79736 | -73.22168 | 18030 ft | 401 kts | 136° |
| 2026-04-17 05:15 | 19.77603 | -73.20283 | 17766 ft | 399 kts | 136° |
| 2026-04-17 05:15 | 19.75473 | -73.18402 | 17506 ft | 397 kts | 136° |
| 2026-04-17 05:15 | 19.73348 | -73.16528 | 17257 ft | 396 kts | 136° |
| 2026-04-17 05:15 | 19.71233 | -73.14661 | 16999 ft | 394 kts | 136° |
| 2026-04-17 05:16 | 19.69131 | -73.12807 | 16753 ft | 392 kts | 136° |
| 2026-04-17 05:16 | 19.67039 | -73.10962 | 16506 ft | 390 kts | 136° |
| 2026-04-17 05:16 | 19.64956 | -73.09125 | 16261 ft | 389 kts | 136° |
| 2026-04-17 05:16 | 19.62880 | -73.07296 | 16025 ft | 387 kts | 136° |
| 2026-04-17 05:17 | 19.60815 | -73.05476 | 15774 ft | 386 kts | 136° |
| 2026-04-17 05:17 | 19.58753 | -73.03661 | 15548 ft | 384 kts | 136° |
| 2026-04-17 05:17 | 19.56707 | -73.01860 | 15303 ft | 382 kts | 136° |
| 2026-04-17 05:17 | 19.54656 | -73.00055 | 15059 ft | 381 kts | 136° |
| 2026-04-17 05:18 | 19.52624 | -72.98268 | 14838 ft | 380 kts | 136° |
| 2026-04-17 05:18 | 19.50590 | -72.96480 | 14615 ft | 378 kts | 136° |
| 2026-04-17 05:18 | 19.48597 | -72.94728 | 14386 ft | 377 kts | 137° |
| 2026-04-17 05:18 | 19.46586 | -72.92959 | 14156 ft | 376 kts | 137° |
| 2026-04-17 05:19 | 19.44552 | -72.91173 | 13930 ft | 375 kts | 137° |
| 2026-04-17 05:19 | 19.42572 | -72.89433 | 13686 ft | 373 kts | 137° |
| 2026-04-17 05:19 | 19.40579 | -72.87684 | 13420 ft | 372 kts | 137° |
| 2026-04-17 05:19 | 19.38593 | -72.85942 | 13173 ft | 370 kts | 137° |
| 2026-04-17 05:20 | 19.36611 | -72.84203 | 12914 ft | 368 kts | 137° |
| 2026-04-17 05:20 | 19.34641 | -72.82475 | 12668 ft | 367 kts | 137° |
| 2026-04-17 05:20 | 19.32686 | -72.80760 | 12427 ft | 365 kts | 137° |
| 2026-04-17 05:20 | 19.30751 | -72.79066 | 12184 ft | 354 kts | 137° |
| 2026-04-17 05:21 | 19.28839 | -72.77397 | 11984 ft | 367 kts | 138° |
| 2026-04-17 05:21 | 19.26814 | -72.75632 | 11931 ft | 387 kts | 138° |
| 2026-04-17 05:21 | 19.24758 | -72.73821 | 11829 ft | 382 kts | 136° |
| 2026-04-17 05:21 | 19.22733 | -72.71975 | 11760 ft | 384 kts | 139° |
| 2026-04-17 05:22 | 19.20683 | -72.70224 | 11578 ft | 372 kts | 141° |
| 2026-04-17 05:22 | 19.18650 | -72.68547 | 11329 ft | 367 kts | 141° |
| 2026-04-17 05:22 | 19.16668 | -72.66881 | 11109 ft | 359 kts | 141° |
| 2026-04-17 05:22 | 19.14739 | -72.65234 | 10866 ft | 353 kts | 140° |
| 2026-04-17 05:23 | 19.12832 | -72.63590 | 10621 ft | 351 kts | 140° |
| 2026-04-17 05:23 | 19.10972 | -72.61995 | 10388 ft | 338 kts | 142° |
| 2026-04-17 05:23 | 19.08983 | -72.60773 | 10208 ft | 343 kts | 158° |
| 2026-04-17 05:23 | 19.06575 | -72.60258 | 10128 ft | 360 kts | 176° |
| 2026-04-17 05:24 | 19.04120 | -72.60254 | 9899 ft | 345 kts | 182° |
| 2026-04-17 05:24 | 19.01706 | -72.60328 | 9747 ft | 350 kts | 181° |
| 2026-04-17 05:24 | 18.99327 | -72.60395 | 9616 ft | 334 kts | 181° |
| 2026-04-17 05:24 | 18.96956 | -72.60455 | 9535 ft | 347 kts | 181° |
| 2026-04-17 05:25 | 18.94562 | -72.60510 | 9476 ft | 343 kts | 181° |
| 2026-04-17 05:25 | 18.92218 | -72.60562 | 9414 ft | 340 kts | 181° |
| 2026-04-17 05:25 | 18.89862 | -72.60611 | 9329 ft | 337 kts | 181° |
| 2026-04-17 05:25 | 18.87534 | -72.60657 | 9257 ft | 333 kts | 181° |
| 2026-04-17 05:26 | 18.85219 | -72.60703 | 9205 ft | 331 kts | 181° |
| 2026-04-17 05:26 | 18.82934 | -72.60748 | 9143 ft | 324 kts | 181° |
| 2026-04-17 05:26 | 18.80674 | -72.60795 | 9106 ft | 336 kts | 181° |
| 2026-04-17 05:26 | 18.78253 | -72.60845 | 9478 ft | 359 kts | 181° |
| 2026-04-17 05:27 | 18.75743 | -72.60898 | 9743 ft | 362 kts | 180° |
| 2026-04-17 05:27 | 18.73256 | -72.60936 | 9596 ft | 344 kts | 180° |
| 2026-04-17 05:27 | 18.70938 | -72.60965 | 9336 ft | 330 kts | 180° |
| 2026-04-17 05:27 | 18.68661 | -72.61001 | 9092 ft | 317 kts | 180° |
| 2026-04-17 05:28 | 18.66524 | -72.61029 | 8853 ft | 305 kts | 179° |
| 2026-04-17 05:28 | 18.64451 | -72.60807 | 8582 ft | 294 kts | 167° |
| 2026-04-17 05:28 | 18.62544 | -72.60090 | 8267 ft | 289 kts | 151° |
| 2026-04-17 05:28 | 18.60883 | -72.58884 | 7998 ft | 286 kts | 137° |
| 2026-04-17 05:29 | 18.59607 | -72.57346 | 7529 ft | 273 kts | 123° |
| 2026-04-17 05:29 | 18.58670 | -72.55622 | 6756 ft | 273 kts | 117° |
| 2026-04-17 05:29 | 18.57817 | -72.53803 | 5698 ft | 282 kts | 115° |
| 2026-04-17 05:29 | 18.57154 | -72.51830 | 4598 ft | 288 kts | 103° |
| 2026-04-17 05:30 | 18.56946 | -72.49726 | 3709 ft | 287 kts | 89° |
| 2026-04-17 05:30 | 18.57051 | -72.47666 | 3166 ft | 274 kts | 85° |
| 2026-04-17 05:30 | 18.57176 | -72.45763 | 2906 ft | 251 kts | 86° |
| 2026-04-17 05:30 | 18.57266 | -72.44015 | 2745 ft | 229 kts | 87° |
| 2026-04-17 05:31 | 18.57346 | -72.42355 | 2204 ft | 225 kts | 87° |
| 2026-04-17 05:31 | 18.57428 | -72.40673 | 1370 ft | 235 kts | 87° |
| 2026-04-17 05:31 | 18.57512 | -72.39014 | 1098 ft | 210 kts | 87° |
| 2026-04-17 05:31 | 18.57582 | -72.37606 | 1077 ft | 177 kts | 87° |
| 2026-04-17 05:32 | 18.57641 | -72.36422 | 1088 ft | 153 kts | 86° |
| 2026-04-17 05:32 | 18.57695 | -72.35361 | 968 ft | 138 kts | 87° |
| 2026-04-17 05:32 | 18.57745 | -72.34379 | 796 ft | 132 kts | 87° |
| 2026-04-17 05:32 | 18.57794 | -72.33418 | 625 ft | 131 kts | 87° |
| 2026-04-17 05:33 | 18.57842 | -72.32456 | 452 ft | 131 kts | 87° |
| 2026-04-17 05:33 | 18.57890 | -72.31497 | 280 ft | 131 kts | 87° |
| 2026-04-17 05:33 | 18.57940 | -72.30539 | 108 ft | 130 kts | 86° |
| 2026-04-17 05:33 | 18.57990 | -72.29607 | 87 ft | 121 kts | 87° |
| 2026-04-17 05:34 | 18.58023 | -72.28825 | 95 ft | 93 kts | 86° |
| 2026-04-17 05:34 | 18.58051 | -72.28388 | 103 ft | 8 kts | 86° |
| 2026-04-17 05:34 | 18.58053 | -72.28384 | 103 ft | 3 kts | 76° |
| 2026-04-17 05:34 | 18.58065 | -72.28440 | 100 ft | 23 kts | 206° |
| 2026-04-17 05:35 | 18.57963 | -72.28490 | 100 ft | 14 kts | 184° |
| 2026-04-17 05:35 | 18.57856 | -72.28484 | 97 ft | 17 kts | 176° |
| 2026-04-17 05:35 | 18.57812 | -72.28565 | 96 ft | 15 kts | 274° |
| 2026-04-17 05:35 | 18.57793 | -72.28680 | 94 ft | 18 kts | 258° |
| 2026-04-17 05:36 | 18.57752 | -72.28821 | 93 ft | 22 kts | 264° |
| 2026-04-17 05:36 | 18.57747 | -72.28996 | 90 ft | 26 kts | 269° |
| 2026-04-17 05:36 | 18.57696 | -72.29150 | 90 ft | 21 kts | 225° |
| 2026-04-17 05:36 | 18.57675 | -72.29285 | 88 ft | 1 kts | 268° |
| 2026-04-17 05:38 | 18.57675 | -72.29299 | 87 ft | 11 kts | 268° |
| 2026-04-17 05:38 | 18.57674 | -72.29510 | 84 ft | 25 kts | 268° |
| 2026-04-17 05:38 | 18.57627 | -72.29562 | 87 ft | 4 kts | 175° |
| 2026-04-17 05:38 | 18.57611 | -72.29565 | 86 ft | 0 kts | 188° |